sensor_id;sensor_type;location;lat;lon;timestamp;P1;durP1;ratioP1;P2;durP2;ratioP2
15449;SDS011;7826;49.784;9.934;2023-09-07T00:01:12;6.37;;;5.77;;
15449;SDS011;7826;49.784;9.934;2023-09-07T00:03:38;7.80;;;6.17;;
15449;SDS011;7826;49.784;9.934;2023-09-07T00:06:07;6.60;;;5.90;;
15449;SDS011;7826;49.784;9.934;2023-09-07T00:08:35;6.97;;;6.27;;
15449;SDS011;7826;49.784;9.934;2023-09-07T00:11:02;6.50;;;5.87;;
15449;SDS011;7826;49.784;9.934;2023-09-07T00:13:29;6.13;;;5.63;;
15449;SDS011;7826;49.784;9.934;2023-09-07T00:15:59;6.60;;;6.00;;
15449;SDS011;7826;49.784;9.934;2023-09-07T00:18:27;6.30;;;5.70;;
15449;SDS011;7826;49.784;9.934;2023-09-07T00:20:53;8.07;;;6.33;;
15449;SDS011;7826;49.784;9.934;2023-09-07T00:23:20;6.47;;;5.87;;
15449;SDS011;7826;49.784;9.934;2023-09-07T00:25:47;7.00;;;6.30;;
15449;SDS011;7826;49.784;9.934;2023-09-07T00:28:14;7.47;;;6.07;;
15449;SDS011;7826;49.784;9.934;2023-09-07T00:30:41;7.07;;;6.47;;
15449;SDS011;7826;49.784;9.934;2023-09-07T00:33:07;6.13;;;5.63;;
15449;SDS011;7826;49.784;9.934;2023-09-07T00:35:34;6.40;;;5.80;;
15449;SDS011;7826;49.784;9.934;2023-09-07T00:38:01;7.63;;;6.07;;
15449;SDS011;7826;49.784;9.934;2023-09-07T00:40:27;6.07;;;5.57;;
15449;SDS011;7826;49.784;9.934;2023-09-07T00:42:54;6.07;;;5.53;;
15449;SDS011;7826;49.784;9.934;2023-09-07T00:45:21;6.90;;;6.20;;
15449;SDS011;7826;49.784;9.934;2023-09-07T00:47:47;6.43;;;5.80;;
15449;SDS011;7826;49.784;9.934;2023-09-07T00:50:14;7.13;;;5.90;;
15449;SDS011;7826;49.784;9.934;2023-09-07T00:52:42;6.60;;;6.00;;
15449;SDS011;7826;49.784;9.934;2023-09-07T00:55:10;7.57;;;6.50;;
15449;SDS011;7826;49.784;9.934;2023-09-07T00:57:36;6.60;;;6.00;;
15449;SDS011;7826;49.784;9.934;2023-09-07T01:00:05;6.83;;;6.03;;
15449;SDS011;7826;49.784;9.934;2023-09-07T01:02:33;8.30;;;6.50;;
15449;SDS011;7826;49.784;9.934;2023-09-07T01:05:01;8.20;;;6.43;;
15449;SDS011;7826;49.784;9.934;2023-09-07T01:07:32;6.60;;;5.93;;
15449;SDS011;7826;49.784;9.934;2023-09-07T01:10:03;6.53;;;5.93;;
15449;SDS011;7826;49.784;9.934;2023-09-07T01:12:30;7.30;;;6.60;;
15449;SDS011;7826;49.784;9.934;2023-09-07T01:14:57;8.73;;;6.43;;
15449;SDS011;7826;49.784;9.934;2023-09-07T01:17:24;7.10;;;6.37;;
15449;SDS011;7826;49.784;9.934;2023-09-07T01:19:51;6.80;;;6.10;;
15449;SDS011;7826;49.784;9.934;2023-09-07T01:22:21;7.27;;;6.07;;
15449;SDS011;7826;49.784;9.934;2023-09-07T01:24:48;7.07;;;6.37;;
15449;SDS011;7826;49.784;9.934;2023-09-07T01:27:18;6.83;;;6.20;;
15449;SDS011;7826;49.784;9.934;2023-09-07T01:29:44;7.60;;;6.73;;
15449;SDS011;7826;49.784;9.934;2023-09-07T01:32:11;6.57;;;5.90;;
15449;SDS011;7826;49.784;9.934;2023-09-07T01:34:39;7.83;;;6.20;;
15449;SDS011;7826;49.784;9.934;2023-09-07T01:37:06;7.50;;;6.73;;
15449;SDS011;7826;49.784;9.934;2023-09-07T01:39:33;7.40;;;6.67;;
15449;SDS011;7826;49.784;9.934;2023-09-07T01:41:59;7.13;;;6.43;;
15449;SDS011;7826;49.784;9.934;2023-09-07T01:44:26;6.50;;;5.87;;
15449;SDS011;7826;49.784;9.934;2023-09-07T01:46:52;6.67;;;6.07;;
15449;SDS011;7826;49.784;9.934;2023-09-07T01:49:19;7.00;;;6.40;;
15449;SDS011;7826;49.784;9.934;2023-09-07T01:51:45;6.90;;;6.30;;
15449;SDS011;7826;49.784;9.934;2023-09-07T01:54:12;7.50;;;6.40;;
15449;SDS011;7826;49.784;9.934;2023-09-07T01:56:38;7.67;;;7.00;;
15449;SDS011;7826;49.784;9.934;2023-09-07T01:59:07;7.27;;;6.60;;
15449;SDS011;7826;49.784;9.934;2023-09-07T02:01:33;6.77;;;6.10;;
15449;SDS011;7826;49.784;9.934;2023-09-07T02:04:02;6.97;;;6.27;;
15449;SDS011;7826;49.784;9.934;2023-09-07T02:06:29;7.20;;;6.50;;
15449;SDS011;7826;49.784;9.934;2023-09-07T02:08:55;7.30;;;6.60;;
15449;SDS011;7826;49.784;9.934;2023-09-07T02:11:22;7.00;;;6.40;;
15449;SDS011;7826;49.784;9.934;2023-09-07T02:13:49;7.47;;;6.73;;
15449;SDS011;7826;49.784;9.934;2023-09-07T02:16:15;7.87;;;7.17;;
15449;SDS011;7826;49.784;9.934;2023-09-07T02:18:42;9.37;;;6.90;;
15449;SDS011;7826;49.784;9.934;2023-09-07T02:21:11;9.07;;;6.77;;
15449;SDS011;7826;49.784;9.934;2023-09-07T02:23:38;8.43;;;7.03;;
15449;SDS011;7826;49.784;9.934;2023-09-07T02:26:04;8.07;;;7.33;;
15449;SDS011;7826;49.784;9.934;2023-09-07T02:28:31;7.40;;;6.47;;
15449;SDS011;7826;49.784;9.934;2023-09-07T02:31:04;8.17;;;7.23;;
15449;SDS011;7826;49.784;9.934;2023-09-07T02:33:32;7.97;;;7.17;;
15449;SDS011;7826;49.784;9.934;2023-09-07T02:35:58;7.30;;;6.60;;
15449;SDS011;7826;49.784;9.934;2023-09-07T02:38:25;8.93;;;7.00;;
15449;SDS011;7826;49.784;9.934;2023-09-07T02:40:52;7.60;;;6.90;;
15449;SDS011;7826;49.784;9.934;2023-09-07T02:43:19;7.70;;;7.00;;
15449;SDS011;7826;49.784;9.934;2023-09-07T02:45:45;8.10;;;7.30;;
15449;SDS011;7826;49.784;9.934;2023-09-07T02:48:12;7.83;;;6.97;;
15449;SDS011;7826;49.784;9.934;2023-09-07T02:50:38;7.80;;;7.10;;
15449;SDS011;7826;49.784;9.934;2023-09-07T02:53:05;8.37;;;7.03;;
15449;SDS011;7826;49.784;9.934;2023-09-07T02:55:32;8.07;;;7.37;;
15449;SDS011;7826;49.784;9.934;2023-09-07T02:57:58;9.27;;;7.57;;
15449;SDS011;7826;49.784;9.934;2023-09-07T03:00:25;9.03;;;8.13;;
15449;SDS011;7826;49.784;9.934;2023-09-07T03:02:52;8.57;;;7.00;;
15449;SDS011;7826;49.784;9.934;2023-09-07T03:05:18;9.00;;;7.23;;
15449;SDS011;7826;49.784;9.934;2023-09-07T03:07:45;9.50;;;8.67;;
15449;SDS011;7826;49.784;9.934;2023-09-07T03:10:13;8.07;;;7.00;;
15449;SDS011;7826;49.784;9.934;2023-09-07T03:12:39;9.33;;;7.53;;
15449;SDS011;7826;49.784;9.934;2023-09-07T03:15:06;8.10;;;7.37;;
15449;SDS011;7826;49.784;9.934;2023-09-07T03:17:33;8.63;;;7.77;;
15449;SDS011;7826;49.784;9.934;2023-09-07T03:20:00;8.40;;;7.33;;
15449;SDS011;7826;49.784;9.934;2023-09-07T03:22:27;9.70;;;7.93;;
15449;SDS011;7826;49.784;9.934;2023-09-07T03:24:55;9.83;;;7.77;;
15449;SDS011;7826;49.784;9.934;2023-09-07T03:27:21;8.57;;;7.77;;
15449;SDS011;7826;49.784;9.934;2023-09-07T03:29:49;8.90;;;8.10;;
15449;SDS011;7826;49.784;9.934;2023-09-07T03:32:17;9.27;;;8.37;;
15449;SDS011;7826;49.784;9.934;2023-09-07T03:34:44;8.63;;;7.83;;
15449;SDS011;7826;49.784;9.934;2023-09-07T03:37:10;8.50;;;7.73;;
15449;SDS011;7826;49.784;9.934;2023-09-07T03:39:37;8.67;;;7.77;;
15449;SDS011;7826;49.784;9.934;2023-09-07T03:42:04;9.07;;;7.63;;
15449;SDS011;7826;49.784;9.934;2023-09-07T03:44:30;9.20;;;8.30;;
15449;SDS011;7826;49.784;9.934;2023-09-07T03:46:57;9.30;;;7.63;;
15449;SDS011;7826;49.784;9.934;2023-09-07T03:49:23;10.67;;;8.47;;
15449;SDS011;7826;49.784;9.934;2023-09-07T03:51:50;9.27;;;8.37;;
15449;SDS011;7826;49.784;9.934;2023-09-07T03:54:16;8.70;;;7.90;;
15449;SDS011;7826;49.784;9.934;2023-09-07T03:56:43;9.53;;;8.53;;
15449;SDS011;7826;49.784;9.934;2023-09-07T03:59:09;9.90;;;8.37;;
15449;SDS011;7826;49.784;9.934;2023-09-07T04:01:37;9.80;;;8.90;;
15449;SDS011;7826;49.784;9.934;2023-09-07T04:04:03;13.70;;;8.63;;
15449;SDS011;7826;49.784;9.934;2023-09-07T04:06:30;11.90;;;8.57;;
15449;SDS011;7826;49.784;9.934;2023-09-07T04:08:56;9.60;;;8.60;;
15449;SDS011;7826;49.784;9.934;2023-09-07T04:11:23;8.33;;;7.53;;
15449;SDS011;7826;49.784;9.934;2023-09-07T04:13:49;8.80;;;7.90;;
15449;SDS011;7826;49.784;9.934;2023-09-07T04:16:16;10.37;;;8.53;;
15449;SDS011;7826;49.784;9.934;2023-09-07T04:18:42;9.07;;;7.67;;
15449;SDS011;7826;49.784;9.934;2023-09-07T04:21:10;9.07;;;8.17;;
15449;SDS011;7826;49.784;9.934;2023-09-07T04:23:36;8.93;;;7.77;;
15449;SDS011;7826;49.784;9.934;2023-09-07T04:26:08;10.63;;;9.30;;
15449;SDS011;7826;49.784;9.934;2023-09-07T04:28:35;12.80;;;8.77;;
15449;SDS011;7826;49.784;9.934;2023-09-07T04:31:02;9.63;;;8.50;;
15449;SDS011;7826;49.784;9.934;2023-09-07T04:33:30;9.27;;;8.37;;
15449;SDS011;7826;49.784;9.934;2023-09-07T04:35:57;9.43;;;8.53;;
15449;SDS011;7826;49.784;9.934;2023-09-07T04:38:38;9.93;;;8.63;;
15449;SDS011;7826;49.784;9.934;2023-09-07T04:41:08;13.30;;;10.20;;
15449;SDS011;7826;49.784;9.934;2023-09-07T04:43:38;12.00;;;9.50;;
15449;SDS011;7826;49.784;9.934;2023-09-07T04:46:12;11.23;;;10.00;;
15449;SDS011;7826;49.784;9.934;2023-09-07T04:48:39;10.50;;;9.17;;
15449;SDS011;7826;49.784;9.934;2023-09-07T04:51:08;9.67;;;8.73;;
15449;SDS011;7826;49.784;9.934;2023-09-07T04:53:36;10.87;;;9.20;;
15449;SDS011;7826;49.784;9.934;2023-09-07T04:56:04;10.70;;;9.57;;
15449;SDS011;7826;49.784;9.934;2023-09-07T04:58:32;11.10;;;9.13;;
15449;SDS011;7826;49.784;9.934;2023-09-07T05:01:02;10.37;;;9.10;;
15449;SDS011;7826;49.784;9.934;2023-09-07T05:03:30;9.90;;;8.93;;
15449;SDS011;7826;49.784;9.934;2023-09-07T05:05:57;12.07;;;9.67;;
15449;SDS011;7826;49.784;9.934;2023-09-07T05:08:23;12.07;;;10.87;;
15449;SDS011;7826;49.784;9.934;2023-09-07T05:10:56;10.37;;;9.37;;
15449;SDS011;7826;49.784;9.934;2023-09-07T05:13:30;11.83;;;9.73;;
15449;SDS011;7826;49.784;9.934;2023-09-07T05:15:57;12.77;;;9.10;;
15449;SDS011;7826;49.784;9.934;2023-09-07T05:18:25;10.63;;;9.53;;
15449;SDS011;7826;49.784;9.934;2023-09-07T05:20:52;12.50;;;8.97;;
15449;SDS011;7826;49.784;9.934;2023-09-07T05:23:19;13.07;;;9.27;;
15449;SDS011;7826;49.784;9.934;2023-09-07T05:25:50;10.60;;;9.50;;
15449;SDS011;7826;49.784;9.934;2023-09-07T05:28:19;10.70;;;8.63;;
15449;SDS011;7826;49.784;9.934;2023-09-07T05:30:46;12.63;;;9.93;;
15449;SDS011;7826;49.784;9.934;2023-09-07T05:33:13;10.23;;;8.80;;
15449;SDS011;7826;49.784;9.934;2023-09-07T05:35:42;9.40;;;8.50;;
15449;SDS011;7826;49.784;9.934;2023-09-07T05:38:09;9.63;;;8.57;;
15449;SDS011;7826;49.784;9.934;2023-09-07T05:40:39;13.37;;;8.60;;
15449;SDS011;7826;49.784;9.934;2023-09-07T05:43:06;10.00;;;8.97;;
15449;SDS011;7826;49.784;9.934;2023-09-07T05:45:34;10.87;;;8.80;;
15449;SDS011;7826;49.784;9.934;2023-09-07T05:48:03;14.53;;;8.77;;
15449;SDS011;7826;49.784;9.934;2023-09-07T05:50:31;11.57;;;8.47;;
15449;SDS011;7826;49.784;9.934;2023-09-07T05:52:59;10.33;;;8.37;;
15449;SDS011;7826;49.784;9.934;2023-09-07T05:55:26;9.80;;;8.90;;
15449;SDS011;7826;49.784;9.934;2023-09-07T05:57:55;9.50;;;8.50;;
15449;SDS011;7826;49.784;9.934;2023-09-07T06:00:23;9.23;;;8.33;;
15449;SDS011;7826;49.784;9.934;2023-09-07T06:02:50;9.23;;;8.33;;
15449;SDS011;7826;49.784;9.934;2023-09-07T06:05:17;10.07;;;8.87;;
15449;SDS011;7826;49.784;9.934;2023-09-07T06:07:44;11.20;;;8.80;;
15449;SDS011;7826;49.784;9.934;2023-09-07T06:10:11;12.43;;;8.97;;
15449;SDS011;7826;49.784;9.934;2023-09-07T06:12:37;10.30;;;9.20;;
15449;SDS011;7826;49.784;9.934;2023-09-07T06:15:04;10.70;;;9.00;;
15449;SDS011;7826;49.784;9.934;2023-09-07T06:17:31;9.63;;;8.00;;
15449;SDS011;7826;49.784;9.934;2023-09-07T06:19:57;10.17;;;8.60;;
15449;SDS011;7826;49.784;9.934;2023-09-07T06:22:24;10.03;;;8.10;;
15449;SDS011;7826;49.784;9.934;2023-09-07T06:24:51;9.20;;;8.30;;
15449;SDS011;7826;49.784;9.934;2023-09-07T06:27:17;10.60;;;9.23;;
15449;SDS011;7826;49.784;9.934;2023-09-07T06:29:44;11.80;;;9.00;;
15449;SDS011;7826;49.784;9.934;2023-09-07T06:32:10;10.93;;;8.23;;
15449;SDS011;7826;49.784;9.934;2023-09-07T06:34:37;9.23;;;8.33;;
15449;SDS011;7826;49.784;9.934;2023-09-07T06:37:04;9.83;;;7.93;;
15449;SDS011;7826;49.784;9.934;2023-09-07T06:39:31;8.80;;;7.77;;
15449;SDS011;7826;49.784;9.934;2023-09-07T06:41:57;9.03;;;8.13;;
15449;SDS011;7826;49.784;9.934;2023-09-07T06:44:24;8.50;;;7.67;;
15449;SDS011;7826;49.784;9.934;2023-09-07T06:46:50;9.27;;;8.23;;
15449;SDS011;7826;49.784;9.934;2023-09-07T06:49:16;9.97;;;7.90;;
15449;SDS011;7826;49.784;9.934;2023-09-07T06:51:43;8.60;;;7.67;;
15449;SDS011;7826;49.784;9.934;2023-09-07T06:54:09;8.80;;;7.53;;
15449;SDS011;7826;49.784;9.934;2023-09-07T06:56:36;9.07;;;7.53;;
15449;SDS011;7826;49.784;9.934;2023-09-07T06:59:02;11.20;;;8.10;;
15449;SDS011;7826;49.784;9.934;2023-09-07T07:01:29;9.53;;;7.63;;
15449;SDS011;7826;49.784;9.934;2023-09-07T07:03:56;8.20;;;7.40;;
15449;SDS011;7826;49.784;9.934;2023-09-07T07:06:23;10.17;;;7.57;;
15449;SDS011;7826;49.784;9.934;2023-09-07T07:08:51;8.03;;;7.20;;
15449;SDS011;7826;49.784;9.934;2023-09-07T07:11:18;8.23;;;7.10;;
15449;SDS011;7826;49.784;9.934;2023-09-07T07:13:45;8.10;;;7.30;;
15449;SDS011;7826;49.784;9.934;2023-09-07T07:16:12;9.20;;;7.80;;
15449;SDS011;7826;49.784;9.934;2023-09-07T07:18:39;8.27;;;7.40;;
15449;SDS011;7826;49.784;9.934;2023-09-07T07:21:06;7.43;;;6.73;;
15449;SDS011;7826;49.784;9.934;2023-09-07T07:23:32;8.17;;;7.13;;
15449;SDS011;7826;49.784;9.934;2023-09-07T07:25:59;8.80;;;6.90;;
15449;SDS011;7826;49.784;9.934;2023-09-07T07:28:25;7.77;;;6.90;;
15449;SDS011;7826;49.784;9.934;2023-09-07T07:30:52;6.53;;;5.97;;
15449;SDS011;7826;49.784;9.934;2023-09-07T07:33:19;7.73;;;6.80;;
15449;SDS011;7826;49.784;9.934;2023-09-07T07:35:46;7.33;;;6.63;;
15449;SDS011;7826;49.784;9.934;2023-09-07T07:38:13;10.10;;;6.70;;
15449;SDS011;7826;49.784;9.934;2023-09-07T07:40:40;6.77;;;6.17;;
15449;SDS011;7826;49.784;9.934;2023-09-07T07:43:08;7.00;;;6.30;;
15449;SDS011;7826;49.784;9.934;2023-09-07T07:45:36;11.03;;;6.27;;
15449;SDS011;7826;49.784;9.934;2023-09-07T07:48:04;6.43;;;5.90;;
15449;SDS011;7826;49.784;9.934;2023-09-07T07:50:37;6.03;;;5.20;;
15449;SDS011;7826;49.784;9.934;2023-09-07T07:53:05;7.10;;;6.40;;
15449;SDS011;7826;49.784;9.934;2023-09-07T07:55:39;6.50;;;5.90;;
15449;SDS011;7826;49.784;9.934;2023-09-07T07:58:06;8.03;;;6.07;;
15449;SDS011;7826;49.784;9.934;2023-09-07T08:00:34;6.63;;;5.80;;
15449;SDS011;7826;49.784;9.934;2023-09-07T08:03:02;7.20;;;6.10;;
15449;SDS011;7826;49.784;9.934;2023-09-07T08:05:29;6.47;;;5.97;;
15449;SDS011;7826;49.784;9.934;2023-09-07T08:07:57;6.50;;;5.80;;
15449;SDS011;7826;49.784;9.934;2023-09-07T08:10:23;6.27;;;5.67;;
15449;SDS011;7826;49.784;9.934;2023-09-07T08:12:54;6.10;;;5.50;;
15449;SDS011;7826;49.784;9.934;2023-09-07T08:15:21;6.13;;;5.47;;
15449;SDS011;7826;49.784;9.934;2023-09-07T08:17:48;6.83;;;6.07;;
15449;SDS011;7826;49.784;9.934;2023-09-07T08:20:15;7.17;;;5.80;;
15449;SDS011;7826;49.784;9.934;2023-09-07T08:22:42;8.17;;;5.57;;
15449;SDS011;7826;49.784;9.934;2023-09-07T08:25:10;6.93;;;5.73;;
15449;SDS011;7826;49.784;9.934;2023-09-07T08:27:39;5.97;;;5.35;;
15449;SDS011;7826;49.784;9.934;2023-09-07T08:30:11;6.40;;;5.63;;
15449;SDS011;7826;49.784;9.934;2023-09-07T08:32:38;8.07;;;5.65;;
15449;SDS011;7826;49.784;9.934;2023-09-07T08:35:05;6.53;;;5.72;;
15449;SDS011;7826;49.784;9.934;2023-09-07T08:37:33;7.63;;;5.78;;
15449;SDS011;7826;49.784;9.934;2023-09-07T08:40:00;7.32;;;5.60;;
15449;SDS011;7826;49.784;9.934;2023-09-07T08:42:28;6.05;;;5.55;;
15449;SDS011;7826;49.784;9.934;2023-09-07T08:44:54;5.55;;;5.10;;
15449;SDS011;7826;49.784;9.934;2023-09-07T08:47:25;5.90;;;5.30;;
15449;SDS011;7826;49.784;9.934;2023-09-07T08:49:55;6.32;;;5.63;;
15449;SDS011;7826;49.784;9.934;2023-09-07T08:52:23;5.95;;;5.43;;
15449;SDS011;7826;49.784;9.934;2023-09-07T08:54:50;6.00;;;5.50;;
15449;SDS011;7826;49.784;9.934;2023-09-07T08:57:18;5.68;;;5.13;;
15449;SDS011;7826;49.784;9.934;2023-09-07T08:59:44;5.93;;;5.00;;
15449;SDS011;7826;49.784;9.934;2023-09-07T09:02:11;6.20;;;5.60;;
15449;SDS011;7826;49.784;9.934;2023-09-07T09:04:38;6.88;;;5.32;;
15449;SDS011;7826;49.784;9.934;2023-09-07T09:07:05;5.95;;;5.32;;
15449;SDS011;7826;49.784;9.934;2023-09-07T09:09:31;5.45;;;4.95;;
15449;SDS011;7826;49.784;9.934;2023-09-07T09:12:10;6.22;;;5.53;;
15449;SDS011;7826;49.784;9.934;2023-09-07T09:14:41;6.00;;;5.27;;
15449;SDS011;7826;49.784;9.934;2023-09-07T09:17:13;6.00;;;5.40;;
15449;SDS011;7826;49.784;9.934;2023-09-07T09:19:40;6.00;;;5.50;;
15449;SDS011;7826;49.784;9.934;2023-09-07T09:22:07;7.93;;;5.37;;
15449;SDS011;7826;49.784;9.934;2023-09-07T09:24:35;5.73;;;5.10;;
15449;SDS011;7826;49.784;9.934;2023-09-07T09:27:02;6.00;;;5.40;;
15449;SDS011;7826;49.784;9.934;2023-09-07T09:29:33;6.27;;;4.90;;
15449;SDS011;7826;49.784;9.934;2023-09-07T09:32:01;5.90;;;4.83;;
15449;SDS011;7826;49.784;9.934;2023-09-07T09:34:35;6.57;;;5.50;;
15449;SDS011;7826;49.784;9.934;2023-09-07T09:37:03;7.23;;;5.30;;
15449;SDS011;7826;49.784;9.934;2023-09-07T09:39:30;5.87;;;4.90;;
15449;SDS011;7826;49.784;9.934;2023-09-07T09:41:57;7.30;;;4.90;;
15449;SDS011;7826;49.784;9.934;2023-09-07T09:44:25;5.80;;;5.20;;
15449;SDS011;7826;49.784;9.934;2023-09-07T09:46:55;7.00;;;5.27;;
15449;SDS011;7826;49.784;9.934;2023-09-07T09:49:22;5.63;;;5.13;;
15449;SDS011;7826;49.784;9.934;2023-09-07T09:51:49;5.83;;;5.00;;
15449;SDS011;7826;49.784;9.934;2023-09-07T09:54:17;8.37;;;5.00;;
15449;SDS011;7826;49.784;9.934;2023-09-07T09:56:44;5.20;;;4.70;;
15449;SDS011;7826;49.784;9.934;2023-09-07T09:59:14;5.47;;;4.97;;
15449;SDS011;7826;49.784;9.934;2023-09-07T10:01:43;6.07;;;4.70;;
15449;SDS011;7826;49.784;9.934;2023-09-07T10:04:14;7.07;;;5.20;;
15449;SDS011;7826;49.784;9.934;2023-09-07T10:06:56;6.13;;;4.57;;
15449;SDS011;7826;49.784;9.934;2023-09-07T10:09:33;5.80;;;4.80;;
15449;SDS011;7826;49.784;9.934;2023-09-07T10:12:01;5.20;;;4.70;;
15449;SDS011;7826;49.784;9.934;2023-09-07T10:14:41;5.40;;;4.80;;
15449;SDS011;7826;49.784;9.934;2023-09-07T10:17:08;4.80;;;4.30;;
15449;SDS011;7826;49.784;9.934;2023-09-07T10:19:35;9.90;;;4.90;;
15449;SDS011;7826;49.784;9.934;2023-09-07T10:22:04;5.27;;;4.67;;
15449;SDS011;7826;49.784;9.934;2023-09-07T10:24:34;5.40;;;4.90;;
15449;SDS011;7826;49.784;9.934;2023-09-07T10:27:05;5.57;;;4.90;;
15449;SDS011;7826;49.784;9.934;2023-09-07T10:29:46;5.73;;;5.10;;
15449;SDS011;7826;49.784;9.934;2023-09-07T10:32:18;6.17;;;4.90;;
15449;SDS011;7826;49.784;9.934;2023-09-07T10:34:44;5.93;;;4.73;;
15449;SDS011;7826;49.784;9.934;2023-09-07T10:37:12;5.30;;;4.80;;
15449;SDS011;7826;49.784;9.934;2023-09-07T10:39:39;6.87;;;5.13;;
15449;SDS011;7826;49.784;9.934;2023-09-07T10:42:19;5.40;;;4.87;;
15449;SDS011;7826;49.784;9.934;2023-09-07T10:44:47;5.60;;;5.00;;
15449;SDS011;7826;49.784;9.934;2023-09-07T10:47:13;8.87;;;5.40;;
15449;SDS011;7826;49.784;9.934;2023-09-07T10:49:40;6.17;;;5.20;;
15449;SDS011;7826;49.784;9.934;2023-09-07T10:52:06;6.03;;;5.07;;
15449;SDS011;7826;49.784;9.934;2023-09-07T10:54:33;6.20;;;5.33;;
15449;SDS011;7826;49.784;9.934;2023-09-07T10:57:10;5.90;;;5.30;;
15449;SDS011;7826;49.784;9.934;2023-09-07T10:59:44;6.90;;;5.10;;
15449;SDS011;7826;49.784;9.934;2023-09-07T11:02:11;5.53;;;5.03;;
15449;SDS011;7826;49.784;9.934;2023-09-07T11:04:38;6.50;;;5.13;;
15449;SDS011;7826;49.784;9.934;2023-09-07T11:07:05;7.17;;;5.27;;
15449;SDS011;7826;49.784;9.934;2023-09-07T11:09:32;9.57;;;5.10;;
15449;SDS011;7826;49.784;9.934;2023-09-07T11:12:05;5.20;;;4.70;;
15449;SDS011;7826;49.784;9.934;2023-09-07T11:14:32;5.93;;;5.03;;
15449;SDS011;7826;49.784;9.934;2023-09-07T11:16:58;7.53;;;4.83;;
15449;SDS011;7826;49.784;9.934;2023-09-07T11:19:27;5.30;;;4.80;;
15449;SDS011;7826;49.784;9.934;2023-09-07T11:21:57;6.33;;;5.10;;
15449;SDS011;7826;49.784;9.934;2023-09-07T11:24:23;5.17;;;4.60;;
15449;SDS011;7826;49.784;9.934;2023-09-07T11:26:52;6.17;;;5.40;;
15449;SDS011;7826;49.784;9.934;2023-09-07T11:29:18;6.20;;;4.90;;
15449;SDS011;7826;49.784;9.934;2023-09-07T11:31:45;5.37;;;4.87;;
15449;SDS011;7826;49.784;9.934;2023-09-07T11:34:12;5.90;;;5.23;;
15449;SDS011;7826;49.784;9.934;2023-09-07T11:36:40;4.75;;;4.35;;
15449;SDS011;7826;49.784;9.934;2023-09-07T11:39:08;5.50;;;4.43;;
15449;SDS011;7826;49.784;9.934;2023-09-07T11:41:41;7.23;;;4.47;;
15449;SDS011;7826;49.784;9.934;2023-09-07T11:44:08;6.10;;;4.23;;
15449;SDS011;7826;49.784;9.934;2023-09-07T11:46:36;5.43;;;4.65;;
15449;SDS011;7826;49.784;9.934;2023-09-07T11:49:03;16.58;;;5.47;;
15449;SDS011;7826;49.784;9.934;2023-09-07T11:51:32;5.35;;;4.47;;
15449;SDS011;7826;49.784;9.934;2023-09-07T11:54:01;4.97;;;4.38;;
15449;SDS011;7826;49.784;9.934;2023-09-07T11:56:28;4.55;;;4.07;;
15449;SDS011;7826;49.784;9.934;2023-09-07T11:58:55;4.43;;;4.13;;
15449;SDS011;7826;49.784;9.934;2023-09-07T12:01:21;4.65;;;4.25;;
15449;SDS011;7826;49.784;9.934;2023-09-07T12:03:48;5.95;;;4.63;;
15449;SDS011;7826;49.784;9.934;2023-09-07T12:06:15;4.85;;;4.32;;
15449;SDS011;7826;49.784;9.934;2023-09-07T12:08:42;4.68;;;4.00;;
15449;SDS011;7826;49.784;9.934;2023-09-07T12:11:23;5.55;;;3.88;;
15449;SDS011;7826;49.784;9.934;2023-09-07T12:13:53;4.18;;;3.88;;
15449;SDS011;7826;49.784;9.934;2023-09-07T12:16:21;5.03;;;4.25;;
15449;SDS011;7826;49.784;9.934;2023-09-07T12:18:48;4.75;;;4.35;;
15449;SDS011;7826;49.784;9.934;2023-09-07T12:21:15;6.28;;;4.10;;
15449;SDS011;7826;49.784;9.934;2023-09-07T12:23:44;4.50;;;4.10;;
15449;SDS011;7826;49.784;9.934;2023-09-07T12:26:11;5.57;;;4.88;;
15449;SDS011;7826;49.784;9.934;2023-09-07T12:28:41;5.68;;;4.25;;
15449;SDS011;7826;49.784;9.934;2023-09-07T12:31:08;4.70;;;4.35;;
15449;SDS011;7826;49.784;9.934;2023-09-07T12:33:34;5.53;;;4.97;;
15449;SDS011;7826;49.784;9.934;2023-09-07T12:36:01;5.10;;;4.38;;
15449;SDS011;7826;49.784;9.934;2023-09-07T12:38:28;4.38;;;3.97;;
15449;SDS011;7826;49.784;9.934;2023-09-07T12:40:55;4.70;;;4.30;;
15449;SDS011;7826;49.784;9.934;2023-09-07T12:43:21;6.13;;;4.55;;
15449;SDS011;7826;49.784;9.934;2023-09-07T12:45:53;4.60;;;4.20;;
15449;SDS011;7826;49.784;9.934;2023-09-07T12:48:19;5.00;;;4.60;;
15449;SDS011;7826;49.784;9.934;2023-09-07T12:50:46;4.63;;;4.22;;
15449;SDS011;7826;49.784;9.934;2023-09-07T12:53:13;5.40;;;4.22;;
15449;SDS011;7826;49.784;9.934;2023-09-07T12:55:39;4.30;;;3.90;;
15449;SDS011;7826;49.784;9.934;2023-09-07T12:58:06;4.28;;;3.88;;
15449;SDS011;7826;49.784;9.934;2023-09-07T13:00:32;4.38;;;3.97;;
15449;SDS011;7826;49.784;9.934;2023-09-07T13:02:59;4.78;;;4.38;;
15449;SDS011;7826;49.784;9.934;2023-09-07T13:05:25;4.88;;;3.80;;
15449;SDS011;7826;49.784;9.934;2023-09-07T13:07:52;4.65;;;3.65;;
15449;SDS011;7826;49.784;9.934;2023-09-07T13:10:20;4.57;;;3.95;;
15449;SDS011;7826;49.784;9.934;2023-09-07T13:12:46;5.82;;;4.15;;
15449;SDS011;7826;49.784;9.934;2023-09-07T13:15:13;4.97;;;3.92;;
15449;SDS011;7826;49.784;9.934;2023-09-07T13:17:39;4.60;;;3.72;;
15449;SDS011;7826;49.784;9.934;2023-09-07T13:20:06;3.78;;;3.47;;
15449;SDS011;7826;49.784;9.934;2023-09-07T13:22:33;4.43;;;4.03;;
15449;SDS011;7826;49.784;9.934;2023-09-07T13:24:59;4.90;;;4.00;;
15449;SDS011;7826;49.784;9.934;2023-09-07T13:27:27;4.47;;;3.80;;
15449;SDS011;7826;49.784;9.934;2023-09-07T13:29:53;6.75;;;4.07;;
15449;SDS011;7826;49.784;9.934;2023-09-07T13:32:20;4.93;;;4.40;;
15449;SDS011;7826;49.784;9.934;2023-09-07T13:34:47;5.22;;;4.00;;
15449;SDS011;7826;49.784;9.934;2023-09-07T13:37:13;4.55;;;4.25;;
15449;SDS011;7826;49.784;9.934;2023-09-07T13:39:40;5.60;;;3.92;;
15449;SDS011;7826;49.784;9.934;2023-09-07T13:42:09;4.43;;;4.03;;
15449;SDS011;7826;49.784;9.934;2023-09-07T13:44:35;4.43;;;4.13;;
15449;SDS011;7826;49.784;9.934;2023-09-07T13:47:02;5.07;;;4.13;;
15449;SDS011;7826;49.784;9.934;2023-09-07T13:49:29;4.32;;;4.03;;
15449;SDS011;7826;49.784;9.934;2023-09-07T13:51:57;5.38;;;4.10;;
15449;SDS011;7826;49.784;9.934;2023-09-07T13:54:23;4.73;;;4.30;;
15449;SDS011;7826;49.784;9.934;2023-09-07T13:56:50;4.85;;;4.20;;
15449;SDS011;7826;49.784;9.934;2023-09-07T13:59:17;4.25;;;3.80;;
15449;SDS011;7826;49.784;9.934;2023-09-07T14:01:46;4.63;;;3.95;;
15449;SDS011;7826;49.784;9.934;2023-09-07T14:04:12;4.72;;;4.15;;
15449;SDS011;7826;49.784;9.934;2023-09-07T14:06:39;4.00;;;3.70;;
15449;SDS011;7826;49.784;9.934;2023-09-07T14:09:06;4.77;;;4.37;;
15449;SDS011;7826;49.784;9.934;2023-09-07T14:11:32;4.63;;;4.13;;
15449;SDS011;7826;49.784;9.934;2023-09-07T14:13:59;5.93;;;3.90;;
15449;SDS011;7826;49.784;9.934;2023-09-07T14:16:26;5.55;;;4.30;;
15449;SDS011;7826;49.784;9.934;2023-09-07T14:18:52;5.33;;;4.80;;
15449;SDS011;7826;49.784;9.934;2023-09-07T14:21:25;5.13;;;4.33;;
15449;SDS011;7826;49.784;9.934;2023-09-07T14:23:51;29.80;;;6.80;;
15449;SDS011;7826;49.784;9.934;2023-09-07T14:26:18;4.93;;;4.30;;
15449;SDS011;7826;49.784;9.934;2023-09-07T14:28:45;4.70;;;4.20;;
15449;SDS011;7826;49.784;9.934;2023-09-07T14:31:11;5.80;;;4.27;;
15449;SDS011;7826;49.784;9.934;2023-09-07T14:33:38;4.60;;;4.20;;
15449;SDS011;7826;49.784;9.934;2023-09-07T14:36:07;5.13;;;4.10;;
15449;SDS011;7826;49.784;9.934;2023-09-07T14:38:36;7.03;;;4.53;;
15449;SDS011;7826;49.784;9.934;2023-09-07T14:41:07;20.03;;;5.30;;
15449;SDS011;7826;49.784;9.934;2023-09-07T14:43:45;4.83;;;4.37;;
15449;SDS011;7826;49.784;9.934;2023-09-07T14:46:12;4.87;;;4.03;;
15449;SDS011;7826;49.784;9.934;2023-09-07T14:48:39;4.47;;;4.07;;
15449;SDS011;7826;49.784;9.934;2023-09-07T14:51:06;4.43;;;4.07;;
15449;SDS011;7826;49.784;9.934;2023-09-07T14:53:33;4.43;;;4.13;;
15449;SDS011;7826;49.784;9.934;2023-09-07T14:56:00;5.03;;;4.10;;
15449;SDS011;7826;49.784;9.934;2023-09-07T14:58:27;6.20;;;4.33;;
15449;SDS011;7826;49.784;9.934;2023-09-07T15:00:54;4.80;;;4.40;;
15449;SDS011;7826;49.784;9.934;2023-09-07T15:03:20;6.03;;;4.80;;